createdAt,value
2018-09-24T00:00:01.284Z,101013.42
2018-09-24T00:02:30.013Z,101021.59
2018-09-24T00:04:59.277Z,101030.08
2018-09-24T00:07:28.455Z,101034.90
2018-09-24T00:09:57.693Z,101036.73
2018-09-24T00:12:26.471Z,101035.91
2018-09-24T00:14:55.946Z,101046.06
2018-09-24T00:17:24.741Z,101045.39
2018-09-24T00:19:53.615Z,101054.73
2018-09-24T00:22:22.746Z,101059.05
2018-09-24T00:24:51.814Z,101058.08
2018-09-24T00:27:20.697Z,101067.41
2018-09-24T00:29:49.799Z,101071.05
2018-09-24T00:32:18.662Z,101068.38
2018-09-24T00:34:47.571Z,101071.39
2018-09-24T00:37:16.315Z,101079.56
2018-09-24T00:39:45.123Z,101086.38
2018-09-24T00:42:14.305Z,101087.73
2018-09-24T00:44:43.161Z,101100.55
2018-09-24T00:47:12.794Z,101095.05
2018-09-24T00:49:41.581Z,101095.38
2018-09-24T00:52:10.913Z,101098.19
2018-09-24T00:54:39.727Z,101107.70
2018-09-24T00:57:08.408Z,101112.36
2018-09-24T00:59:37.282Z,101111.34
2018-09-24T01:02:06.384Z,101114.84
2018-09-24T01:04:35.161Z,101124.51
2018-09-24T01:07:04.533Z,101137.66
2018-09-24T01:09:33.970Z,101147.78
2018-09-24T01:12:03.583Z,101145.96
2018-09-24T01:14:32.486Z,101150.98
2018-09-24T01:17:01.372Z,101161.64
2018-09-24T01:19:30.248Z,101159.28
2018-09-24T01:21:59.060Z,101166.63
2018-09-24T01:24:27.834Z,101176.59
2018-09-24T01:26:56.939Z,101174.73
2018-09-24T01:29:25.682Z,101176.53
2018-09-24T01:31:54.572Z,101191.18
2018-09-24T01:34:23.437Z,101197.34
2018-09-24T01:36:52.549Z,101199.13
2018-09-24T01:39:21.594Z,101203.95
2018-09-24T01:41:50.381Z,101206.72
2018-09-24T01:44:19.130Z,101205.19
2018-09-24T01:46:47.940Z,101207.31
2018-09-24T01:49:17.091Z,101227.33
2018-09-24T01:51:46.056Z,101224.18
2018-09-24T01:54:14.870Z,101233.66
2018-09-24T01:56:43.713Z,101237.34
2018-09-24T01:59:12.725Z,101247.45
2018-09-24T02:01:46.980Z,101253.11
2018-09-24T02:04:16.032Z,101256.96
2018-09-24T02:06:45.838Z,101262.18
2018-09-24T02:09:14.924Z,101261.67
2018-09-24T02:11:44.024Z,101259.45
2018-09-24T02:14:13.018Z,101266.45
2018-09-24T02:16:41.955Z,101266.67
2018-09-24T02:19:10.876Z,101274.78
2018-09-24T02:21:39.730Z,101279.11
2018-09-24T02:24:08.615Z,101283.67
2018-09-24T02:26:37.540Z,101287.79
2018-09-24T02:29:06.430Z,101292.98
2018-09-24T02:31:42.019Z,101292.00
2018-09-24T02:34:12.180Z,101298.95
2018-09-24T02:36:41.397Z,101304.59
2018-09-24T02:39:11.383Z,101307.55
2018-09-24T02:41:41.024Z,101320.63
2018-09-24T02:44:10.186Z,101322.80
2018-09-24T02:46:43.968Z,101320.56
2018-09-24T02:49:12.826Z,101328.06
2018-09-24T02:51:41.699Z,101334.05
2018-09-24T02:54:10.596Z,101333.21
2018-09-24T02:56:49.536Z,101339.02
2018-09-24T02:59:18.874Z,101333.27
2018-09-24T03:01:47.835Z,101342.58
2018-09-24T03:04:16.803Z,101351.55
2018-09-24T03:06:45.722Z,101352.29
2018-09-24T03:09:16.190Z,101352.98
2018-09-24T03:11:45.408Z,101363.42
2018-09-24T03:14:14.904Z,101365.30
2018-09-24T03:16:43.969Z,101367.96
2018-09-24T03:19:12.868Z,101366.92
2018-09-24T03:21:41.888Z,101375.29
2018-09-24T03:24:11.059Z,101371.62
2018-09-24T03:26:42.253Z,101372.95
2018-09-24T03:29:21.870Z,101378.27
2018-09-24T03:31:50.908Z,101382.60
2018-09-24T03:34:20.217Z,101386.73
2018-09-24T03:36:49.821Z,101386.23
2018-09-24T03:39:18.993Z,101391.56
2018-09-24T03:41:47.990Z,101385.16
2018-09-24T03:44:17.370Z,101391.06
2018-09-24T03:46:46.624Z,101390.11
2018-09-24T03:49:15.407Z,101394.70
2018-09-24T03:51:44.163Z,101401.81
2018-09-24T03:54:13.164Z,101399.08
2018-09-24T03:56:42.096Z,101412.94
2018-09-24T03:59:11.135Z,101405.59
2018-09-24T04:01:39.868Z,101417.52
2018-09-24T04:04:13.676Z,101422.03
2018-09-24T04:06:47.746Z,101418.16
2018-09-24T04:09:22.127Z,101421.69
2018-09-24T04:11:56.031Z,101427.11
2018-09-24T04:14:30.336Z,101424.09
2018-09-24T04:17:04.506Z,101433.52
2018-09-24T04:19:38.750Z,101428.93
2018-09-24T04:22:13.259Z,101435.64
2018-09-24T04:24:47.670Z,101443.94
2018-09-24T04:27:21.585Z,101439.28
2018-09-24T04:29:55.700Z,101443.51
2018-09-24T04:32:30.122Z,101445.38
2018-09-24T04:35:04.024Z,101448.00
2018-09-24T04:37:38.090Z,101451.92
2018-09-24T04:40:12.445Z,101456.81
2018-09-24T04:42:46.419Z,101454.75
2018-09-24T04:45:20.804Z,101457.41
2018-09-24T04:47:54.742Z,101463.01
2018-09-24T04:50:29.022Z,101473.36
2018-09-24T04:53:03.059Z,101471.19
2018-09-24T04:55:37.181Z,101466.89
2018-09-24T04:58:11.103Z,101482.31
2018-09-24T05:00:45.330Z,101476.58
2018-09-24T05:03:19.440Z,101481.27
2018-09-24T05:05:53.336Z,101478.95
2018-09-24T05:08:27.365Z,101482.10
2018-09-24T05:11:01.639Z,101471.66
2018-09-24T05:13:35.852Z,101480.34
2018-09-24T05:16:10.380Z,101485.00
2018-09-24T05:18:44.292Z,101488.70
2018-09-24T05:21:19.671Z,101492.97
2018-09-24T05:23:53.685Z,101492.06
2018-09-24T05:26:28.168Z,101493.32
2018-09-24T05:29:02.055Z,101497.09
2018-09-24T05:31:36.176Z,101496.56
2018-09-24T05:34:10.173Z,101502.23
2018-09-24T05:36:44.673Z,101508.78
2018-09-24T05:39:19.117Z,101503.95
2018-09-24T05:41:53.162Z,101507.67
2018-09-24T05:44:27.258Z,101512.50
2018-09-24T05:47:01.186Z,101519.47
2018-09-24T05:49:35.215Z,101515.64
2018-09-24T05:52:10.051Z,101515.77
2018-09-24T05:54:43.980Z,101522.20
2018-09-24T05:57:17.972Z,101527.45
2018-09-24T05:59:52.378Z,101541.11
2018-09-24T06:02:26.688Z,101540.25
2018-09-24T06:05:00.577Z,101545.55
2018-09-24T06:07:34.407Z,101550.87
2018-09-24T06:10:08.346Z,101557.52
2018-09-24T06:12:42.683Z,101559.02
2018-09-24T06:15:16.615Z,101562.73
2018-09-24T06:17:50.457Z,101567.82
2018-09-24T06:20:24.623Z,101570.73
2018-09-24T06:22:58.832Z,101578.97
2018-09-24T06:25:33.240Z,101590.31
2018-09-24T06:28:07.197Z,101591.06
2018-09-24T06:30:41.302Z,101596.59
2018-09-24T06:33:15.729Z,101600.63
2018-09-24T06:35:49.760Z,101610.93
2018-09-24T06:38:23.850Z,101602.38
2018-09-24T06:40:57.756Z,101605.04
2018-09-24T06:43:32.023Z,101622.38
2018-09-24T06:46:05.908Z,101612.81
2018-09-24T06:48:39.846Z,101612.47
2018-09-24T06:51:13.967Z,101624.17
2018-09-24T06:53:47.827Z,101628.75
2018-09-24T06:56:22.418Z,101629.13
2018-09-24T06:58:56.607Z,101624.27
2018-09-24T07:01:30.607Z,101631.27
2018-09-24T07:04:05.629Z,101648.19
2018-09-24T07:06:39.580Z,101656.04
2018-09-24T07:09:14.411Z,101653.58
2018-09-24T07:11:48.617Z,101662.72
2018-09-24T07:14:22.605Z,101661.61
2018-09-24T07:16:56.849Z,101666.63
2018-09-24T07:19:31.525Z,101662.19
2018-09-24T07:22:06.001Z,101679.26
2018-09-24T07:24:40.117Z,101681.44
2018-09-24T07:27:14.568Z,101690.41
2018-09-24T07:29:48.660Z,101691.69
2018-09-24T07:32:22.884Z,101699.06
2018-09-24T07:34:56.785Z,101700.07
2018-09-24T07:37:30.647Z,101707.15
2018-09-24T07:40:04.542Z,101723.02
2018-09-24T07:42:38.767Z,101718.81
2018-09-24T07:45:12.768Z,101721.55
2018-09-24T07:47:46.920Z,101720.91
2018-09-24T07:50:21.035Z,101728.08
2018-09-24T07:52:55.893Z,101724.37
2018-09-24T07:55:31.899Z,101734.27
2018-09-24T07:58:07.221Z,101734.96
2018-09-24T08:00:42.885Z,101726.73
2018-09-24T08:03:18.013Z,101749.20
2018-09-24T08:05:52.953Z,101740.54
2018-09-24T08:08:28.641Z,101741.27
2018-09-24T08:11:02.755Z,101749.78
2018-09-24T08:13:37.756Z,101741.02
2018-09-24T08:16:13.190Z,101761.80
2018-09-24T08:18:48.698Z,101766.12
2018-09-24T08:21:22.714Z,101772.49
2018-09-24T08:23:58.314Z,101760.16
2018-09-24T08:26:32.409Z,101775.90
2018-09-24T08:29:06.969Z,101779.97
2018-09-24T08:31:42.124Z,101786.16
2018-09-24T08:34:16.755Z,101794.01
2018-09-24T08:36:51.670Z,101792.34
2018-09-24T08:39:26.295Z,101792.70
2018-09-24T08:42:01.093Z,101801.08
2018-09-24T08:44:36.035Z,101808.45
2018-09-24T08:47:10.754Z,101799.89
2018-09-24T08:49:45.982Z,101805.41
2018-09-24T08:52:21.266Z,101794.73
2018-09-24T08:54:56.494Z,101808.80
2018-09-24T08:57:31.878Z,101825.20
2018-09-24T09:00:06.708Z,101823.16
2018-09-24T09:02:41.026Z,101823.87
2018-09-24T09:05:15.372Z,101821.13
2018-09-24T09:07:50.225Z,101820.82
2018-09-24T09:10:25.366Z,101826.85
2018-09-24T09:12:59.253Z,101828.69
2018-09-24T09:15:34.354Z,101835.92
2018-09-24T09:18:08.786Z,101838.27
2018-09-24T09:20:43.411Z,101843.14
2018-09-24T09:23:17.448Z,101840.13
2018-09-24T09:25:51.408Z,101841.97
2018-09-24T09:28:26.295Z,101841.31
2018-09-24T09:31:00.858Z,101850.69
2018-09-24T09:33:36.359Z,101858.70
2018-09-24T09:36:10.891Z,101850.81
2018-09-24T09:38:45.114Z,101859.03
2018-09-24T09:41:19.728Z,101872.44
2018-09-24T09:43:54.160Z,101868.88
2018-09-24T09:46:29.160Z,101869.04
2018-09-24T09:49:03.616Z,101868.23
2018-09-24T09:51:38.101Z,101879.12
2018-09-24T09:54:13.134Z,101872.70
2018-09-24T09:56:47.374Z,101880.41
2018-09-24T09:59:22.760Z,101879.77
2018-09-24T10:01:57.034Z,101894.19
2018-09-24T10:04:33.505Z,101886.47
2018-09-24T10:07:09.062Z,101893.89
2018-09-24T10:09:43.891Z,101886.69
2018-09-24T10:12:18.153Z,101892.05
2018-09-24T10:14:52.902Z,101889.84
2018-09-24T10:17:27.317Z,101893.88
2018-09-24T10:20:02.105Z,101896.20
2018-09-24T10:22:36.511Z,101895.78
2018-09-24T10:25:12.358Z,101900.67
2018-09-24T10:27:48.279Z,101913.12
2018-09-24T10:30:23.350Z,101916.45
2018-09-24T10:32:58.623Z,101918.52
2018-09-24T10:35:32.733Z,101897.30
2018-09-24T10:38:08.757Z,101920.08
2018-09-24T10:40:42.974Z,101935.24
2018-09-24T10:43:17.655Z,101931.41
2018-09-24T10:45:52.655Z,101935.52
2018-09-24T10:48:27.404Z,101917.55
2018-09-24T10:51:02.545Z,101931.22
2018-09-24T10:53:36.755Z,101921.85
2018-09-24T10:56:11.347Z,101925.43
2018-09-24T10:58:46.579Z,101926.75
2018-09-24T11:01:21.833Z,101925.20
2018-09-24T11:03:56.235Z,101925.84
2018-09-24T11:06:31.256Z,101932.19
2018-09-24T11:09:05.288Z,101928.91
2018-09-24T11:11:41.167Z,101927.86
2018-09-24T11:14:15.534Z,101934.38
2018-09-24T11:16:50.070Z,101933.94
2018-09-24T11:19:24.121Z,101932.22
2018-09-24T11:21:58.248Z,101931.69
2018-09-24T11:24:32.385Z,101930.51
2018-09-24T11:27:06.783Z,101925.44
2018-09-24T11:29:41.301Z,101931.31
2018-09-24T11:32:16.118Z,101928.05
2018-09-24T11:34:50.186Z,101932.95
2018-09-24T11:37:25.002Z,101940.78
2018-09-24T11:39:59.255Z,101930.64
2018-09-24T11:42:34.696Z,101940.81
2018-09-24T11:45:09.854Z,101960.23
2018-09-24T11:47:44.873Z,101963.02
2018-09-24T11:50:19.054Z,101963.34
2018-09-24T11:52:53.919Z,101959.75
2018-09-24T11:55:28.726Z,101955.76
2018-09-24T11:58:03.311Z,101961.03
2018-09-24T12:00:37.719Z,101969.59
2018-09-24T12:03:14.173Z,101967.15
2018-09-24T12:05:48.401Z,101983.63
2018-09-24T12:08:23.348Z,101962.83
2018-09-24T12:10:58.235Z,101970.48
2018-09-24T12:13:32.932Z,101964.70
2018-09-24T12:16:09.026Z,101985.06
2018-09-24T12:18:43.787Z,101998.61
2018-09-24T12:21:17.891Z,102013.95
2018-09-24T12:23:52.063Z,102036.56
2018-09-24T12:26:26.413Z,102045.67
2018-09-24T12:29:00.643Z,102056.10
2018-09-24T12:31:35.081Z,102063.20
2018-09-24T12:34:09.583Z,102078.96
2018-09-24T12:36:44.097Z,102081.26
2018-09-24T12:39:19.262Z,102099.03
2018-09-24T12:41:53.957Z,102088.19
2018-09-24T12:44:28.011Z,102076.34
2018-09-24T12:47:02.529Z,102058.44
2018-09-24T12:49:37.351Z,102056.59
2018-09-24T12:52:12.526Z,102051.66
2018-09-24T12:54:48.752Z,102048.13
2018-09-24T12:57:24.000Z,102050.23
2018-09-24T12:59:58.562Z,102048.02
2018-09-24T13:02:33.130Z,102051.03
2018-09-24T13:05:08.222Z,102048.52
2018-09-24T13:07:42.339Z,102046.02
2018-09-24T13:10:16.754Z,102042.67
2018-09-24T13:12:51.761Z,102040.03
2018-09-24T13:15:25.931Z,102043.89
2018-09-24T13:18:00.174Z,102040.21
2018-09-24T13:20:34.204Z,102041.08
2018-09-24T13:23:08.427Z,102047.10
2018-09-24T13:25:43.046Z,102043.05
2018-09-24T13:28:17.893Z,102038.34
2018-09-24T13:30:53.732Z,102051.38
2018-09-24T13:33:28.830Z,102056.26
2018-09-24T13:36:02.963Z,102062.12
2018-09-24T13:38:37.127Z,102051.76
2018-09-24T13:41:11.327Z,102049.78
2018-09-24T13:43:45.787Z,102035.36
2018-09-24T13:46:20.147Z,102044.20
2018-09-24T13:48:54.708Z,102044.47
2018-09-24T13:51:30.540Z,102047.40
2018-09-24T13:54:05.160Z,102044.84
2018-09-24T13:56:39.427Z,102049.16
2018-09-24T13:59:13.749Z,102048.13
2018-09-24T14:01:49.908Z,102043.46
2018-09-24T14:04:24.232Z,102039.33
2018-09-24T14:06:58.858Z,102038.52
2018-09-24T14:09:34.149Z,102032.78
2018-09-24T14:12:08.897Z,102024.44
2018-09-24T14:14:43.054Z,102017.45
2018-09-24T14:17:17.765Z,102015.86
2018-09-24T14:19:51.851Z,102016.90
2018-09-24T14:22:27.056Z,102028.25
2018-09-24T14:25:01.612Z,102040.84
2018-09-24T14:27:36.033Z,102044.49
2018-09-24T14:30:11.062Z,102041.20
2018-09-24T14:32:44.933Z,102034.13
2018-09-24T14:35:19.446Z,102035.42
2018-09-24T14:37:54.606Z,102055.47
2018-09-24T14:40:29.062Z,102059.13
2018-09-24T14:43:03.564Z,102060.04
2018-09-24T14:45:37.745Z,102061.62
2018-09-24T14:48:12.059Z,102060.27
2018-09-24T14:50:46.256Z,102061.77
2018-09-24T14:53:20.580Z,102066.44
2018-09-24T14:55:56.325Z,102058.45
2018-09-24T14:58:30.931Z,102053.17
2018-09-24T15:01:05.283Z,102051.23
2018-09-24T15:03:39.869Z,102054.94
2018-09-24T15:06:14.520Z,102053.91
2018-09-24T15:08:49.018Z,102070.29
2018-09-24T15:11:23.383Z,102069.02
2018-09-24T15:13:58.016Z,102074.76
2018-09-24T15:16:32.943Z,102078.00
2018-09-24T15:19:07.310Z,102079.02
2018-09-24T15:21:41.470Z,102084.12
2018-09-24T15:24:15.555Z,102085.98
2018-09-24T15:26:50.491Z,102079.61
2018-09-24T15:29:24.616Z,102091.16
2018-09-24T15:31:59.039Z,102073.59
2018-09-24T15:34:33.155Z,102092.34
2018-09-24T15:37:07.370Z,102085.31
2018-09-24T15:39:41.661Z,102089.64
2018-09-24T15:42:15.856Z,102091.92
2018-09-24T15:44:50.559Z,102088.38
2018-09-24T15:47:24.937Z,102092.55
2018-09-24T15:49:59.196Z,102087.50
2018-09-24T15:52:33.701Z,102094.79
2018-09-24T15:55:07.679Z,102083.23
2018-09-24T15:57:41.909Z,102090.45
2018-09-24T16:00:15.877Z,102090.45
2018-09-24T16:02:49.861Z,102095.97
2018-09-24T16:05:23.711Z,102097.11
2018-09-24T16:07:57.759Z,102092.41
2018-09-24T16:10:39.191Z,102085.37
2018-09-24T16:13:13.060Z,102101.44
2018-09-24T16:15:47.367Z,102100.69
2018-09-24T16:18:21.900Z,102097.52
2018-09-24T16:20:56.558Z,102105.51
2018-09-24T16:23:30.873Z,102109.72
2018-09-24T16:26:05.407Z,102115.86
2018-09-24T16:28:40.091Z,102109.91
2018-09-24T16:31:14.416Z,102118.05
2018-09-24T16:33:49.212Z,102120.53
2018-09-24T16:36:23.562Z,102134.77
2018-09-24T16:38:57.790Z,102130.15
2018-09-24T16:41:31.915Z,102134.66
2018-09-24T16:44:06.012Z,102144.08
2018-09-24T16:46:41.387Z,102137.88
2018-09-24T16:49:16.904Z,102146.95
2018-09-24T16:51:51.147Z,102152.53
2018-09-24T16:54:25.811Z,102158.02
2018-09-24T16:57:01.756Z,102157.48
2018-09-24T16:59:35.953Z,102158.30
2018-09-24T17:02:10.445Z,102164.92
2018-09-24T17:04:44.973Z,102173.22
2018-09-24T17:07:19.061Z,102176.04
2018-09-24T17:09:54.030Z,102175.94
2018-09-24T17:12:28.238Z,102184.11
2018-09-24T17:15:02.560Z,102183.33
2018-09-24T17:17:36.771Z,102180.91
2018-09-24T17:20:11.175Z,102184.89
2018-09-24T17:22:45.330Z,102185.39
2018-09-24T17:25:19.445Z,102197.10
2018-09-24T17:27:53.498Z,102205.17
2018-09-24T17:30:27.661Z,102203.63
2018-09-24T17:33:01.652Z,102203.20
2018-09-24T17:35:35.591Z,102208.69
2018-09-24T17:38:09.892Z,102215.55
2018-09-24T17:40:45.605Z,102224.53
2018-09-24T17:43:19.615Z,102222.14
2018-09-24T17:45:54.196Z,102217.89
2018-09-24T17:48:28.330Z,102224.81
2018-09-24T17:51:03.288Z,102229.49
2018-09-24T17:53:38.099Z,102235.52
2018-09-24T17:56:12.106Z,102241.03
2018-09-24T17:58:45.893Z,102249.05
2018-09-24T18:01:19.915Z,102266.80
2018-09-24T18:03:54.346Z,102267.45
2018-09-24T18:06:28.382Z,102262.23
2018-09-24T18:09:02.543Z,102253.95
2018-09-24T18:11:36.630Z,102258.70
2018-09-24T18:14:10.955Z,102269.38
2018-09-24T18:16:45.201Z,102268.06
2018-09-24T18:19:19.678Z,102275.37
2018-09-24T18:21:54.367Z,102276.08
2018-09-24T18:24:28.575Z,102291.75
2018-09-24T18:27:03.131Z,102291.95
2018-09-24T18:29:37.454Z,102299.61
2018-09-24T18:32:12.507Z,102303.97
2018-09-24T18:34:47.063Z,102312.56
2018-09-24T18:37:21.321Z,102315.02
2018-09-24T18:39:55.414Z,102320.22
2018-09-24T18:42:29.552Z,102324.42
2018-09-24T18:45:03.984Z,102329.84
2018-09-24T18:47:37.953Z,102336.17
2018-09-24T18:50:13.138Z,102337.20
2018-09-24T18:52:47.585Z,102342.22
2018-09-24T18:55:22.109Z,102342.14
2018-09-24T18:57:59.381Z,102346.91
2018-09-24T19:00:33.310Z,102348.31
2018-09-24T19:03:07.539Z,102355.97
2018-09-24T19:05:41.624Z,102365.45
2018-09-24T19:08:16.008Z,102361.13
2018-09-24T19:10:49.999Z,102373.13
2018-09-24T19:13:24.930Z,102374.80
2018-09-24T19:15:59.041Z,102378.80
2018-09-24T19:18:33.064Z,102373.76
2018-09-24T19:21:07.204Z,102387.11
2018-09-24T19:23:41.553Z,102382.75
2018-09-24T19:26:16.138Z,102383.66
2018-09-24T19:28:50.866Z,102386.33
2018-09-24T19:31:25.051Z,102393.33
2018-09-24T19:33:59.203Z,102393.27
2018-09-24T19:36:33.468Z,102395.52
2018-09-24T19:39:07.741Z,102391.91
2018-09-24T19:41:42.487Z,102398.75
2018-09-24T19:44:16.874Z,102400.34
2018-09-24T19:46:50.893Z,102401.45
2018-09-24T19:49:24.898Z,102409.59
2018-09-24T19:51:58.916Z,102410.11
2018-09-24T19:54:33.203Z,102413.75
2018-09-24T19:57:07.411Z,102413.88
2018-09-24T19:59:41.427Z,102418.86
2018-09-24T20:02:15.442Z,102422.44
2018-09-24T20:04:49.405Z,102422.66
2018-09-24T20:07:23.516Z,102425.87
2018-09-24T20:09:58.021Z,102430.13
2018-09-24T20:12:32.132Z,102436.74
2018-09-24T20:15:10.506Z,102432.33
2018-09-24T20:17:44.483Z,102435.04
2018-09-24T20:20:19.522Z,102437.88
2018-09-24T20:22:54.530Z,102447.22
2018-09-24T20:25:29.096Z,102452.91
2018-09-24T20:28:03.100Z,102458.17
2018-09-24T20:30:37.752Z,102454.77
2018-09-24T20:33:11.888Z,102460.19
2018-09-24T20:35:45.836Z,102468.79
2018-09-24T20:38:19.962Z,102463.70
2018-09-24T20:40:54.211Z,102469.63
2018-09-24T20:43:28.144Z,102464.30
2018-09-24T20:46:02.088Z,102472.38
2018-09-24T20:48:37.733Z,102476.14
2018-09-24T20:51:12.151Z,102484.25
2018-09-24T20:53:46.536Z,102479.48
2018-09-24T20:56:20.509Z,102486.99
2018-09-24T20:58:54.343Z,102491.84
2018-09-24T21:01:28.286Z,102491.89
2018-09-24T21:04:02.454Z,102496.73
2018-09-24T21:06:36.355Z,102502.66
2018-09-24T21:09:11.337Z,102497.17
2018-09-24T21:11:45.819Z,102505.05
2018-09-24T21:14:20.097Z,102509.05
2018-09-24T21:16:54.075Z,102518.80
2018-09-24T21:19:28.394Z,102525.34
2018-09-24T21:22:02.476Z,102525.02
2018-09-24T21:24:36.648Z,102521.78
2018-09-24T21:27:10.681Z,102525.42
2018-09-24T21:29:44.805Z,102527.60
2018-09-24T21:32:19.059Z,102534.47
2018-09-24T21:34:53.415Z,102541.74
2018-09-24T21:37:28.885Z,102542.59
2018-09-24T21:40:03.067Z,102550.67
2018-09-24T21:42:37.413Z,102546.35
2018-09-24T21:45:11.418Z,102544.53
2018-09-24T21:47:45.509Z,102550.59
2018-09-24T21:50:19.669Z,102554.83
2018-09-24T21:52:53.709Z,102556.17
2018-09-24T21:55:28.037Z,102554.47
2018-09-24T21:58:02.980Z,102562.11
2018-09-24T22:00:38.551Z,102557.41
2018-09-24T22:03:13.704Z,102567.11
2018-09-24T22:05:47.777Z,102571.11
2018-09-24T22:08:21.626Z,102568.59
2018-09-24T22:10:55.952Z,102574.29
2018-09-24T22:13:30.212Z,102576.23
2018-09-24T22:16:04.333Z,102576.67
2018-09-24T22:18:38.478Z,102582.07
2018-09-24T22:21:13.918Z,102584.62
2018-09-24T22:23:47.899Z,102592.73
2018-09-24T22:26:21.874Z,102603.00
2018-09-24T22:28:55.923Z,102605.20
2018-09-24T22:31:30.124Z,102613.77
2018-09-24T22:34:04.442Z,102601.19
2018-09-24T22:36:38.523Z,102600.72
2018-09-24T22:39:14.912Z,102613.30
2018-09-24T22:41:49.236Z,102611.01
2018-09-24T22:44:23.307Z,102612.70
2018-09-24T22:46:57.857Z,102619.97
2018-09-24T22:49:31.709Z,102621.66
2018-09-24T22:52:05.851Z,102628.20
2018-09-24T22:54:39.958Z,102625.88
2018-09-24T22:57:14.426Z,102634.23
2018-09-24T22:59:48.529Z,102626.49
2018-09-24T23:02:28.068Z,102631.85
2018-09-24T23:05:02.221Z,102632.22
2018-09-24T23:07:36.249Z,102642.13
2018-09-24T23:10:10.683Z,102633.30
2018-09-24T23:12:45.007Z,102637.55
2018-09-24T23:15:19.818Z,102638.39
2018-09-24T23:17:54.719Z,102635.47
2018-09-24T23:20:29.319Z,102637.28
2018-09-24T23:23:04.021Z,102642.50
2018-09-24T23:25:39.105Z,102646.02
2018-09-24T23:28:13.450Z,102656.31
2018-09-24T23:30:47.416Z,102652.91
2018-09-24T23:33:21.755Z,102660.17
2018-09-24T23:35:55.663Z,102656.44
2018-09-24T23:38:29.571Z,102657.27
2018-09-24T23:41:03.884Z,102662.95
2018-09-24T23:43:39.523Z,102665.11
2018-09-24T23:46:14.137Z,102665.38
2018-09-24T23:48:48.665Z,102671.50
2018-09-24T23:51:22.804Z,102676.23
2018-09-24T23:53:58.380Z,102677.42
2018-09-24T23:56:33.011Z,102679.59
2018-09-24T23:59:07.425Z,102685.41
